createdAt,value
2022-08-22T00:00:45.854Z,13.20
2022-08-22T00:02:43.872Z,15.20
2022-08-22T00:03:04.983Z,17.40
2022-08-22T00:03:15.045Z,14.10
2022-08-22T00:03:34.274Z,13.10
2022-08-22T00:06:17.131Z,13.10
2022-08-22T00:09:05.440Z,13.10
2022-08-22T00:11:48.808Z,13.00
2022-08-22T00:14:27.761Z,12.90
2022-08-22T00:17:07.912Z,12.80
2022-08-22T00:19:53.030Z,12.80
2022-08-22T00:22:34.551Z,12.90
2022-08-22T00:25:29.495Z,12.90
2022-08-22T00:28:12.578Z,13.00
2022-08-22T00:30:55.373Z,13.10
2022-08-22T00:33:41.742Z,13.00
2022-08-22T00:36:34.625Z,12.90
2022-08-22T00:39:16.657Z,12.90
2022-08-22T00:42:32.015Z,13.00
2022-08-22T00:45:35.835Z,13.10
2022-08-22T00:48:50.558Z,13.00
2022-08-22T00:51:53.312Z,12.90
2022-08-22T00:54:52.165Z,12.80
2022-08-22T00:57:52.844Z,12.90
2022-08-22T01:00:27.518Z,12.80
2022-08-22T01:03:55.821Z,12.70
2022-08-22T01:06:43.358Z,12.70
2022-08-22T01:09:29.670Z,12.70
2022-08-22T01:12:21.307Z,12.80
2022-08-22T01:14:58.593Z,12.80
2022-08-22T01:17:57.115Z,12.70
2022-08-22T01:21:24.510Z,12.50
2022-08-22T01:25:13.668Z,12.50
2022-08-22T01:28:20.000Z,12.60
2022-08-22T01:31:47.442Z,12.50
2022-08-22T01:34:59.781Z,12.40
2022-08-22T01:38:09.742Z,12.50
2022-08-22T01:41:23.663Z,12.50
2022-08-22T01:44:18.042Z,12.40
2022-08-22T01:47:01.328Z,12.40
2022-08-22T01:49:47.082Z,12.50
2022-08-22T01:52:37.419Z,12.60
2022-08-22T01:55:16.646Z,12.70
2022-08-22T01:57:58.329Z,12.60
2022-08-22T02:00:52.259Z,12.60
2022-08-22T02:03:30.273Z,12.60
2022-08-22T02:06:14.492Z,12.50
2022-08-22T02:09:00.002Z,12.50
2022-08-22T02:11:50.955Z,12.40
2022-08-22T02:14:40.554Z,12.40
2022-08-22T02:17:22.915Z,12.40
2022-08-22T02:20:13.151Z,12.20
2022-08-22T02:23:00.174Z,12.20
2022-08-22T02:25:48.993Z,12.10
2022-08-22T02:28:35.404Z,12.10
2022-08-22T02:31:16.717Z,12.20
2022-08-22T02:33:59.323Z,12.20
2022-08-22T02:36:37.133Z,12.20
2022-08-22T02:39:22.064Z,12.20
2022-08-22T02:42:01.263Z,12.20
2022-08-22T02:44:38.487Z,12.30
2022-08-22T02:47:15.055Z,12.00
2022-08-22T02:49:58.389Z,11.90
2022-08-22T02:52:36.248Z,11.80
2022-08-22T02:55:21.374Z,11.80
2022-08-22T02:58:03.498Z,11.80
2022-08-22T03:00:50.363Z,11.80
2022-08-22T03:03:27.422Z,11.90
2022-08-22T03:06:05.484Z,11.90
2022-08-22T03:08:38.463Z,12.00
2022-08-22T03:11:28.637Z,11.80
2022-08-22T03:14:11.973Z,11.90
2022-08-22T03:16:58.328Z,11.90
2022-08-22T03:19:48.096Z,12.00
2022-08-22T03:22:25.747Z,12.00
2022-08-22T03:25:07.672Z,12.00
2022-08-22T03:27:52.496Z,11.80
2022-08-22T03:30:30.508Z,11.90
2022-08-22T03:33:17.527Z,11.90
2022-08-22T03:36:09.846Z,11.90
2022-08-22T03:39:07.285Z,11.90
2022-08-22T03:42:27.762Z,11.90
2022-08-22T03:49:11.520Z,11.80
2022-08-22T03:55:33.907Z,11.80
2022-08-22T03:59:01.041Z,11.70
2022-08-22T04:02:03.561Z,11.70
2022-08-22T04:05:40.820Z,11.70
2022-08-22T04:08:52.406Z,11.70
2022-08-22T04:12:09.010Z,11.70
2022-08-22T04:15:18.466Z,11.60
2022-08-22T04:18:20.236Z,11.70
2022-08-22T04:21:33.238Z,11.60
2022-08-22T04:27:52.206Z,11.50
2022-08-22T04:30:33.262Z,11.60
2022-08-22T04:33:15.253Z,11.60
2022-08-22T04:36:00.082Z,11.70
2022-08-22T04:38:39.158Z,11.70
2022-08-22T04:41:18.203Z,11.70
2022-08-22T04:43:57.409Z,11.70
2022-08-22T04:46:37.673Z,11.70
2022-08-22T04:49:23.845Z,11.70
2022-08-22T04:52:04.206Z,11.80
2022-08-22T04:54:58.857Z,11.90
2022-08-22T04:57:44.686Z,11.90
2022-08-22T05:00:16.359Z,11.90
2022-08-22T05:02:53.720Z,11.90
2022-08-22T05:05:36.023Z,11.90
2022-08-22T05:08:14.006Z,12.10
2022-08-22T05:10:49.082Z,12.40
2022-08-22T05:13:26.003Z,12.60
2022-08-22T05:16:03.429Z,12.70
2022-08-22T05:18:43.043Z,12.90
2022-08-22T05:21:19.611Z,13.40
2022-08-22T05:23:57.184Z,14.30
2022-08-22T05:26:29.959Z,15.00
2022-08-22T05:29:07.956Z,15.60
2022-08-22T05:31:46.283Z,15.90
2022-08-22T05:34:23.808Z,16.20
2022-08-22T05:37:08.058Z,16.60
2022-08-22T05:39:47.073Z,17.40
2022-08-22T05:42:30.950Z,17.90
2022-08-22T05:45:04.615Z,18.20
2022-08-22T05:47:44.403Z,18.70
2022-08-22T05:50:21.506Z,19.40
2022-08-22T05:53:07.421Z,19.70
2022-08-22T05:55:53.553Z,20.30
2022-08-22T05:58:55.077Z,20.90
2022-08-22T06:01:34.143Z,20.90
2022-08-22T06:04:19.289Z,21.60
2022-08-22T06:06:58.603Z,22.20
2022-08-22T06:09:44.398Z,22.40
2022-08-22T06:12:22.177Z,22.40
2022-08-22T06:15:12.015Z,23.10
2022-08-22T06:17:48.033Z,23.40
2022-08-22T06:20:24.295Z,24.20
2022-08-22T06:23:01.460Z,24.50
2022-08-22T06:25:39.446Z,25.10
2022-08-22T06:28:16.431Z,25.90
2022-08-22T06:30:49.046Z,26.90
2022-08-22T06:33:27.593Z,27.90
2022-08-22T06:36:20.526Z,28.10
2022-08-22T06:39:03.634Z,27.80
2022-08-22T06:41:42.426Z,27.70
2022-08-22T06:44:23.471Z,28.60
2022-08-22T06:47:01.105Z,29.10
2022-08-22T06:49:35.426Z,29.80
2022-08-22T06:52:09.743Z,30.00
2022-08-22T06:54:48.647Z,29.60
2022-08-22T06:57:36.134Z,29.20
2022-08-22T07:00:16.013Z,28.90
2022-08-22T07:02:55.549Z,28.10
2022-08-22T07:05:37.046Z,27.80
2022-08-22T07:08:12.694Z,28.30
2022-08-22T07:10:46.043Z,28.10
2022-08-22T07:13:22.870Z,28.90
2022-08-22T07:18:33.128Z,30.60
2022-08-22T07:21:09.347Z,31.10
2022-08-22T07:23:47.980Z,31.70
2022-08-22T07:26:32.697Z,32.90
2022-08-22T07:29:14.234Z,32.80
2022-08-22T07:31:58.455Z,32.40
2022-08-22T07:34:51.937Z,33.30
2022-08-22T07:37:40.957Z,32.80
2022-08-22T07:40:28.410Z,31.70
2022-08-22T07:43:07.582Z,31.30
2022-08-22T07:45:55.057Z,31.10
2022-08-22T07:48:33.210Z,31.10
2022-08-22T07:51:11.931Z,31.30
2022-08-22T07:53:47.989Z,31.40
2022-08-22T07:56:25.086Z,31.20
2022-08-22T07:59:04.799Z,30.90
2022-08-22T08:01:40.828Z,31.40
2022-08-22T08:04:15.733Z,31.50
2022-08-22T08:09:22.160Z,33.70
2022-08-22T08:11:56.875Z,34.40
2022-08-22T08:14:29.607Z,35.20
2022-08-22T08:17:09.821Z,35.70
2022-08-22T08:19:44.555Z,36.80
2022-08-22T08:22:22.738Z,36.40
2022-08-22T08:24:57.013Z,37.10
2022-08-22T08:27:45.510Z,35.90
2022-08-22T08:30:25.076Z,34.50
2022-08-22T08:33:24.405Z,35.30
2022-08-22T08:36:06.165Z,35.10
2022-08-22T08:38:48.232Z,35.40
2022-08-22T08:41:56.054Z,34.70
2022-08-22T08:44:54.313Z,35.90
2022-08-22T08:48:00.486Z,36.20
2022-08-22T08:50:54.600Z,37.50
2022-08-22T08:53:53.514Z,38.30
2022-08-22T08:56:38.197Z,36.40
2022-08-22T08:59:29.758Z,35.30
2022-08-22T09:02:35.063Z,35.30
2022-08-22T09:05:52.054Z,35.20
2022-08-22T09:08:55.560Z,35.30
2022-08-22T09:12:04.304Z,35.50
2022-08-22T09:15:14.785Z,35.90
2022-08-22T09:18:18.353Z,35.60
2022-08-22T09:21:41.643Z,36.10
2022-08-22T09:25:12.017Z,35.60
2022-08-22T09:27:56.386Z,37.20
2022-08-22T09:30:36.880Z,37.50
2022-08-22T09:33:16.001Z,38.10
2022-08-22T09:36:05.089Z,38.90
2022-08-22T09:38:57.595Z,39.20
2022-08-22T09:41:41.991Z,40.10
2022-08-22T09:44:22.853Z,38.60
2022-08-22T09:47:08.524Z,36.90
2022-08-22T09:49:54.924Z,36.10
2022-08-22T09:53:00.383Z,36.10
2022-08-22T09:55:58.560Z,36.10
2022-08-22T09:58:42.637Z,37.50
2022-08-22T10:01:32.998Z,37.70
2022-08-22T10:04:47.959Z,37.00
2022-08-22T10:11:22.991Z,37.90
2022-08-22T10:14:05.022Z,36.60
2022-08-22T10:16:58.175Z,38.40
2022-08-22T10:19:35.445Z,40.40
2022-08-22T10:22:34.881Z,40.40
2022-08-22T10:25:25.329Z,39.00
2022-08-22T10:28:31.342Z,37.80
2022-08-22T10:31:26.249Z,36.60
2022-08-22T10:34:10.034Z,37.80
2022-08-22T10:36:54.585Z,38.90
2022-08-22T10:39:32.588Z,39.10
2022-08-22T10:42:23.301Z,39.20
2022-08-22T10:45:35.430Z,39.30
2022-08-22T10:48:31.790Z,38.60
2022-08-22T10:51:16.411Z,38.30
2022-08-22T10:54:20.055Z,38.30
2022-08-22T10:57:01.569Z,37.90
2022-08-22T10:59:46.371Z,39.30
2022-08-22T11:03:03.180Z,41.50
2022-08-22T11:05:44.036Z,41.50
2022-08-22T11:08:47.658Z,40.20
2022-08-22T11:11:33.180Z,40.30
2022-08-22T11:14:32.080Z,40.90
2022-08-22T11:17:30.807Z,41.40
2022-08-22T11:20:31.781Z,41.70
2022-08-22T11:23:25.439Z,39.20
2022-08-22T11:26:13.381Z,38.60
2022-08-22T11:29:13.463Z,40.40
2022-08-22T11:32:04.317Z,41.80
2022-08-22T11:34:55.490Z,41.80
2022-08-22T11:37:55.754Z,38.70
2022-08-22T11:40:44.082Z,38.60
2022-08-22T11:43:40.899Z,37.50
2022-08-22T11:46:27.845Z,36.70
2022-08-22T11:49:53.443Z,39.20
2022-08-22T11:52:56.185Z,40.20
2022-08-22T11:55:36.188Z,39.50
2022-08-22T11:58:29.477Z,40.10
2022-08-22T12:01:10.651Z,39.50
2022-08-22T12:04:16.733Z,36.30
2022-08-22T12:07:02.069Z,35.50
2022-08-22T12:09:52.182Z,37.50
2022-08-22T12:12:55.403Z,39.00
2022-08-22T12:15:34.282Z,39.20
2022-08-22T12:19:03.554Z,40.50
2022-08-22T12:22:11.952Z,39.60
2022-08-22T12:25:09.556Z,39.70
2022-08-22T12:28:14.405Z,40.40
2022-08-22T12:30:56.613Z,41.40
2022-08-22T12:34:10.523Z,40.70
2022-08-22T12:37:21.298Z,37.70
2022-08-22T12:40:30.107Z,34.70
2022-08-22T12:43:45.686Z,33.40
2022-08-22T12:46:36.912Z,32.40
2022-08-22T12:49:40.177Z,31.40
2022-08-22T12:52:37.485Z,31.00
2022-08-22T12:55:49.902Z,30.90
2022-08-22T12:58:43.964Z,30.90
2022-08-22T13:01:16.435Z,30.90
2022-08-22T13:03:53.043Z,31.20
2022-08-22T13:06:58.684Z,31.90
2022-08-22T13:09:33.359Z,32.00
2022-08-22T13:12:21.724Z,31.40
2022-08-22T13:15:00.107Z,30.90
2022-08-22T13:17:31.219Z,31.80
2022-08-22T13:20:14.390Z,33.00
2022-08-22T13:22:49.762Z,34.00
2022-08-22T13:25:30.873Z,34.90
2022-08-22T13:28:06.224Z,35.90
2022-08-22T13:30:40.225Z,36.50
2022-08-22T13:33:13.997Z,35.20
2022-08-22T13:35:52.606Z,33.70
2022-08-22T13:38:29.605Z,34.10
2022-08-22T13:41:02.827Z,34.90
2022-08-22T13:43:57.310Z,35.80
2022-08-22T13:46:35.629Z,36.50
2022-08-22T13:49:12.415Z,37.40
2022-08-22T13:51:53.100Z,37.60
2022-08-22T13:54:52.546Z,37.70
2022-08-22T13:57:30.586Z,37.00
2022-08-22T14:00:28.465Z,37.80
2022-08-22T14:03:09.722Z,37.90
2022-08-22T14:05:46.799Z,38.40
2022-08-22T14:08:25.795Z,37.10
2022-08-22T14:11:03.518Z,36.70
2022-08-22T14:13:47.302Z,37.70
2022-08-22T14:16:27.594Z,35.90
2022-08-22T14:19:06.223Z,36.90
2022-08-22T14:21:44.963Z,36.50
2022-08-22T14:24:25.414Z,35.70
2022-08-22T14:27:05.533Z,36.20
2022-08-22T14:29:50.312Z,36.60
2022-08-22T14:32:45.865Z,36.70
2022-08-22T14:35:34.564Z,36.80
2022-08-22T14:38:30.258Z,36.40
2022-08-22T14:41:07.786Z,36.20
2022-08-22T14:43:57.881Z,37.10
2022-08-22T14:46:35.378Z,38.80
2022-08-22T14:49:38.203Z,39.10
2022-08-22T14:52:29.618Z,38.40
2022-08-22T14:55:22.739Z,37.80
2022-08-22T14:58:00.065Z,38.60
2022-08-22T15:00:39.595Z,37.40
2022-08-22T15:03:17.821Z,36.10
2022-08-22T15:05:56.716Z,36.60
2022-08-22T15:08:35.413Z,37.30
2022-08-22T15:11:26.086Z,37.30
2022-08-22T15:14:16.062Z,38.10
2022-08-22T15:16:57.094Z,38.20
2022-08-22T15:19:41.014Z,37.70
2022-08-22T15:22:25.891Z,38.60
2022-08-22T15:25:05.286Z,38.90
2022-08-22T15:27:45.358Z,38.70
2022-08-22T15:30:21.310Z,37.50
2022-08-22T15:32:51.775Z,37.00
2022-08-22T15:35:39.019Z,36.00
2022-08-22T15:38:31.245Z,35.50
2022-08-22T15:41:39.652Z,35.30
2022-08-22T15:44:30.773Z,35.00
2022-08-22T15:47:28.531Z,34.90
2022-08-22T15:50:06.518Z,34.40
2022-08-22T15:53:16.458Z,34.60
2022-08-22T15:56:33.048Z,34.70
2022-08-22T15:59:48.204Z,34.60
2022-08-22T16:02:35.360Z,34.60
2022-08-22T16:05:29.457Z,34.10
2022-08-22T16:08:09.744Z,34.30
2022-08-22T16:10:48.045Z,33.50
2022-08-22T16:13:43.138Z,34.00
2022-08-22T16:16:51.182Z,34.40
2022-08-22T16:19:26.094Z,34.00
2022-08-22T16:22:20.081Z,33.40
2022-08-22T16:25:11.830Z,32.90
2022-08-22T16:28:01.348Z,32.90
2022-08-22T16:30:41.177Z,32.70
2022-08-22T16:33:17.959Z,32.30
2022-08-22T16:36:41.658Z,32.00
2022-08-22T16:39:31.342Z,31.90
2022-08-22T16:42:36.707Z,32.00
2022-08-22T16:45:32.752Z,31.70
2022-08-22T16:48:39.530Z,31.20
2022-08-22T16:51:18.567Z,31.10
2022-08-22T16:54:11.662Z,31.00
2022-08-22T16:57:09.324Z,31.10
2022-08-22T17:00:10.074Z,31.50
2022-08-22T17:03:09.018Z,31.20
2022-08-22T17:05:53.435Z,31.10
2022-08-22T17:08:53.869Z,31.10
2022-08-22T17:11:44.276Z,30.60
2022-08-22T17:14:31.030Z,30.50
2022-08-22T17:17:26.660Z,30.20
2022-08-22T17:20:18.360Z,30.10
2022-08-22T17:23:00.167Z,30.10
2022-08-22T17:25:39.135Z,29.40
2022-08-22T17:28:23.043Z,28.70
2022-08-22T17:31:03.973Z,28.10
2022-08-22T17:34:03.483Z,28.00
2022-08-22T17:36:57.601Z,28.00
2022-08-22T17:39:58.681Z,28.40
2022-08-22T17:42:56.422Z,28.50
2022-08-22T17:45:44.760Z,28.20
2022-08-22T17:48:23.016Z,27.80
2022-08-22T17:50:59.279Z,27.30
2022-08-22T17:53:42.122Z,26.80
2022-08-22T17:56:23.890Z,26.50
2022-08-22T17:59:20.615Z,26.00
2022-08-22T18:01:58.721Z,25.60
2022-08-22T18:04:38.314Z,25.20
2022-08-22T18:07:37.614Z,25.00
2022-08-22T18:10:24.672Z,24.60
2022-08-22T18:13:07.383Z,24.30
2022-08-22T18:15:47.981Z,24.10
2022-08-22T18:18:31.783Z,23.90
2022-08-22T18:21:10.654Z,23.70
2022-08-22T18:23:47.175Z,23.50
2022-08-22T18:26:34.114Z,23.40
2022-08-22T18:29:14.558Z,23.20
2022-08-22T18:31:56.128Z,23.10
2022-08-22T18:34:40.860Z,22.80
2022-08-22T18:37:24.450Z,22.80
2022-08-22T18:40:02.389Z,22.60
2022-08-22T18:42:44.641Z,22.50
2022-08-22T18:45:18.486Z,22.20
2022-08-22T18:47:59.243Z,22.00
2022-08-22T18:50:35.454Z,21.80
2022-08-22T18:53:44.069Z,21.70
2022-08-22T18:56:28.893Z,21.60
2022-08-22T18:59:22.616Z,21.50
2022-08-22T19:02:10.773Z,21.40
2022-08-22T19:05:24.346Z,21.10
2022-08-22T19:08:34.468Z,21.00
2022-08-22T19:11:35.118Z,20.70
2022-08-22T19:14:36.422Z,20.60
2022-08-22T19:17:36.771Z,20.60
2022-08-22T19:20:34.925Z,20.40
2022-08-22T19:23:45.507Z,20.20
2022-08-22T19:26:38.887Z,20.20
2022-08-22T19:30:00.280Z,20.00
2022-08-22T19:33:02.943Z,20.20
2022-08-22T19:36:08.746Z,20.20
2022-08-22T19:39:01.996Z,20.10
2022-08-22T19:41:52.502Z,19.90
2022-08-22T19:44:42.254Z,19.80
2022-08-22T19:47:35.063Z,19.50
2022-08-22T19:50:16.070Z,19.40
2022-08-22T19:53:05.926Z,19.50
2022-08-22T19:55:57.487Z,19.80
2022-08-22T19:58:38.425Z,19.80
2022-08-22T20:01:58.140Z,19.80
2022-08-22T20:05:08.660Z,19.70
2022-08-22T20:07:56.820Z,19.50
2022-08-22T20:10:43.225Z,19.40
2022-08-22T20:13:25.138Z,19.40
2022-08-22T20:16:21.631Z,19.40
2022-08-22T20:19:19.165Z,19.30
2022-08-22T20:22:00.792Z,19.30
2022-08-22T20:24:40.310Z,19.30
2022-08-22T20:27:18.889Z,19.30
2022-08-22T20:29:57.566Z,19.20
2022-08-22T20:32:28.761Z,19.20
2022-08-22T20:35:04.715Z,19.20
2022-08-22T20:38:05.780Z,19.10
2022-08-22T20:40:56.078Z,19.10
2022-08-22T20:43:36.996Z,19.20
2022-08-22T20:46:27.971Z,19.20
2022-08-22T20:48:59.816Z,19.20
2022-08-22T20:51:33.891Z,19.20
2022-08-22T20:54:22.933Z,19.20
2022-08-22T20:56:57.671Z,19.10
2022-08-22T20:59:35.750Z,19.00
2022-08-22T21:02:17.717Z,19.00
2022-08-22T21:04:54.730Z,18.90
2022-08-22T21:07:28.936Z,18.80
2022-08-22T21:10:22.933Z,18.80
2022-08-22T21:13:12.515Z,18.80
2022-08-22T21:15:47.729Z,18.70
2022-08-22T21:18:31.353Z,18.70
2022-08-22T21:21:17.004Z,18.70
2022-08-22T21:23:51.293Z,18.70
2022-08-22T21:26:31.517Z,18.70
2022-08-22T21:29:07.260Z,18.70
2022-08-22T21:31:48.998Z,18.70
2022-08-22T21:34:24.874Z,18.60
2022-08-22T21:37:01.357Z,18.50
2022-08-22T21:39:38.649Z,18.50
2022-08-22T21:42:27.575Z,18.50
2022-08-22T21:45:00.546Z,18.50
2022-08-22T21:47:36.017Z,18.40
2022-08-22T21:50:27.220Z,18.30
2022-08-22T21:53:11.824Z,18.20
2022-08-22T21:55:47.092Z,18.00
2022-08-22T21:58:36.477Z,17.90
2022-08-22T22:01:32.805Z,17.90
2022-08-22T22:04:03.098Z,17.80
2022-08-22T22:06:33.287Z,17.70
2022-08-22T22:09:03.287Z,17.50
2022-08-22T22:11:33.492Z,17.40
2022-08-22T22:14:06.358Z,17.40
2022-08-22T22:16:37.735Z,17.30
2022-08-22T22:19:11.832Z,17.30
2022-08-22T22:21:41.840Z,17.20
2022-08-22T22:24:11.881Z,17.20
2022-08-22T22:26:42.039Z,17.30
2022-08-22T22:29:14.669Z,17.30
2022-08-22T22:31:44.768Z,17.20
2022-08-22T22:34:14.883Z,17.30
2022-08-22T22:36:45.580Z,17.40
2022-08-22T22:39:15.640Z,17.40
2022-08-22T22:41:45.625Z,17.40
2022-08-22T22:44:18.164Z,17.40
2022-08-22T22:46:52.322Z,17.40
2022-08-22T22:49:22.525Z,17.50
2022-08-22T22:51:52.587Z,17.50
2022-08-22T22:54:27.228Z,17.50
2022-08-22T22:56:58.599Z,17.40
2022-08-22T22:59:32.532Z,17.40
2022-08-22T23:02:08.523Z,17.50
2022-08-22T23:04:42.045Z,17.40
2022-08-22T23:07:14.104Z,17.40
2022-08-22T23:09:45.359Z,17.30
2022-08-22T23:12:17.222Z,17.20
2022-08-22T23:14:49.839Z,17.00
2022-08-22T23:17:23.120Z,17.00
2022-08-22T23:19:54.646Z,17.00
2022-08-22T23:22:24.785Z,16.90
2022-08-22T23:24:54.821Z,16.70
2022-08-22T23:27:25.428Z,16.70
2022-08-22T23:29:58.037Z,16.70
2022-08-22T23:32:28.365Z,16.50
2022-08-22T23:34:58.536Z,16.40
2022-08-22T23:37:28.529Z,16.30
2022-08-22T23:39:58.544Z,16.30
2022-08-22T23:42:29.582Z,16.20
2022-08-22T23:45:02.142Z,16.10
2022-08-22T23:47:32.263Z,16.10
2022-08-22T23:50:02.964Z,16.00
2022-08-22T23:52:36.368Z,16.00
2022-08-22T23:55:07.221Z,15.90
2022-08-22T23:57:37.408Z,15.80
